Time;durP1;ratioP1;P1;durP2;ratioP2;P2;SDS_P1;SDS_P2;PMS_P1;PMS_P2;Temp;Humidity;BMP_temperature;BMP_pressure;BME280_temperature;BME280_humidity;BME280_pressure;Samples;Min_cycle;Max_cycle;Signal;HPM_P1;HPM_P2
2022/01/05 00:00:35;;;;;;;1999.90;999.90;;;;;;;5.67;90.09;98778.14;1596223;87;20906;-77
2022/01/05 00:03:01;;;;;;;20.20;19.07;;;;;;;5.65;90.12;98791.00;1603254;87;20939;-77
2022/01/05 00:05:27;;;;;;;1999.90;999.90;;;;;;;5.61;90.09;98791.11;1603646;87;20912;-77
2022/01/05 00:07:53;;;;;;;1999.90;999.90;;;;;;;5.55;90.01;98802.36;1606146;87;20939;-77
2022/01/05 00:10:19;;;;;;;1999.90;999.90;;;;;;;5.50;89.96;98807.20;1612043;87;21036;-77
2022/01/05 00:12:45;;;;;;;1999.90;999.90;;;;;;;5.46;89.99;98805.59;1591762;87;20987;-77
2022/01/05 00:15:11;;;;;;;1999.90;999.90;;;;;;;5.40;89.98;98804.02;1606310;87;20955;-77
2022/01/05 00:17:37;;;;;;;1999.90;999.90;;;;;;;5.35;89.89;98806.28;1596764;87;20957;-77
2022/01/05 00:20:05;;;;;;;1999.90;999.90;;;;;;;5.27;89.87;98812.42;1579777;87;21164;-77
2022/01/05 00:22:31;;;;;;;1999.90;999.90;;;;;;;5.22;89.85;98815.98;1584427;87;21028;-77
2022/01/05 00:24:57;;;;;;;1999.90;999.90;;;;;;;5.15;89.85;98816.58;1603869;87;21498;-78
2022/01/05 00:27:23;;;;;;;1999.90;999.90;;;;;;;5.10;89.85;98826.09;1587256;89;21594;-78
2022/01/05 00:29:49;;;;;;;1999.90;999.90;;;;;;;5.05;89.84;98831.76;1591333;89;20915;-78
2022/01/05 00:32:15;;;;;;;1999.90;999.90;;;;;;;4.99;89.87;98834.02;1602797;89;20972;-77
2022/01/05 00:34:41;;;;;;;1999.90;999.90;;;;;;;4.97;89.92;98833.64;1609067;88;20943;-77
2022/01/05 00:37:07;;;;;;;1999.90;999.90;;;;;;;4.95;89.96;98836.23;1587295;89;20947;-77
2022/01/05 00:39:34;;;;;;;1999.90;999.90;;;;;;;4.93;89.94;98842.27;1599377;89;20995;-77
2022/01/05 00:42:00;;;;;;;1999.90;999.90;;;;;;;4.90;89.94;98835.93;1577938;89;20975;-77
2022/01/05 00:44:26;;;;;;;1999.90;999.90;;;;;;;4.88;89.95;98843.65;1566010;89;20987;-77
2022/01/05 00:46:52;;;;;;;1999.90;999.90;;;;;;;4.86;89.94;98850.52;1605844;89;20903;-77
2022/01/05 00:49:19;;;;;;;1999.90;999.90;;;;;;;4.82;89.89;98855.30;1605515;87;20945;-77
2022/01/05 00:51:45;;;;;;;1999.90;999.90;;;;;;;4.80;89.92;98851.93;1607352;87;20937;-77
2022/01/05 00:54:11;;;;;;;1999.90;999.90;;;;;;;4.76;89.88;98851.59;1600912;87;20977;-77
2022/01/05 00:56:37;;;;;;;1999.90;999.90;;;;;;;4.73;89.90;98847.81;1587275;87;20989;-77
2022/01/05 00:59:03;;;;;;;1999.90;999.90;;;;;;;4.70;89.90;98844.47;1593240;87;20933;-77
2022/01/05 01:01:30;;;;;;;1999.90;999.90;;;;;;;4.69;89.89;98846.62;1604927;87;20953;-77
2022/01/05 01:03:56;;;;;;;1999.90;999.90;;;;;;;4.65;89.89;98848.44;1606743;87;20934;-77
2022/01/05 01:06:23;;;;;;;1999.90;999.90;;;;;;;4.64;89.86;98850.59;1588190;87;21482;-77
2022/01/05 01:08:49;;;;;;;1999.90;999.90;;;;;;;4.60;89.82;98844.69;1600184;87;20977;-77
2022/01/05 01:11:15;;;;;;;1999.90;999.90;;;;;;;4.57;89.82;98845.19;1605922;87;20969;-77
2022/01/05 01:13:43;;;;;;;1999.90;999.90;;;;;;;4.53;89.79;98848.68;1596688;88;20945;-78
2022/01/05 01:16:09;;;;;;;1999.90;999.90;;;;;;;4.47;89.71;98847.08;1594294;87;20937;-78
2022/01/05 01:18:35;;;;;;;1999.90;999.90;;;;;;;4.41;89.67;98837.41;1606314;87;21308;-78
2022/01/05 01:21:03;;;;;;;1999.90;999.90;;;;;;;4.34;89.70;98834.12;1605810;87;20970;-78
2022/01/05 01:23:29;;;;;;;1999.90;999.90;;;;;;;4.29;89.68;98833.36;1606407;87;21453;-78
2022/01/05 01:25:56;;;;;;;1999.90;999.90;;;;;;;4.24;89.69;98837.28;1597811;87;20960;-78
2022/01/05 01:28:24;;;;;;;1999.90;999.90;;;;;;;4.20;89.67;98839.93;1613377;86;20941;-78
2022/01/05 01:30:51;;;;;;;5.00;4.75;;;;;;;4.16;89.71;98848.09;1632451;86;20934;-78
2022/01/05 01:33:18;;;;;;;1999.90;999.90;;;;;;;4.12;89.65;98860.56;1609877;87;20929;-78
2022/01/05 01:35:44;;;;;;;1999.90;999.90;;;;;;;4.07;89.66;98859.80;1615532;86;26107;-78
2022/01/05 01:38:10;;;;;;;1999.90;999.90;;;;;;;4.03;89.63;98877.35;1632542;86;21041;-78
2022/01/05 01:40:36;;;;;;;1999.90;999.90;;;;;;;3.97;89.61;98888.96;1632716;86;20962;-78
2022/01/05 01:43:02;;;;;;;1999.90;999.90;;;;;;;3.89;89.57;98886.97;1628605;86;20956;-78
2022/01/05 01:45:28;;;;;;;1999.90;999.90;;;;;;;3.85;89.61;98900.23;1628593;86;20910;-78
2022/01/05 01:47:55;;;;;;;1999.90;999.90;;;;;;;3.79;89.55;98904.17;1632616;86;20962;-78
2022/01/05 01:50:21;;;;;;;1999.90;999.90;;;;;;;3.75;89.61;98901.25;1628944;86;20949;-78
2022/01/05 01:52:47;;;;;;;1999.90;999.90;;;;;;;3.71;89.63;98897.06;1613055;86;20910;-78
2022/01/05 01:55:13;;;;;;;1999.90;999.90;;;;;;;3.68;89.64;98893.70;1621434;86;21399;-78
2022/01/05 01:57:42;;;;;;;1999.90;999.90;;;;;;;3.64;89.69;98892.47;1627832;86;21008;-78
2022/01/05 02:00:10;;;;;;;1999.90;999.90;;;;;;;3.62;89.66;98889.13;1623580;86;20894;-78
2022/01/05 02:02:37;;;;;;;1999.90;999.90;;;;;;;3.59;89.64;98885.78;1647796;86;21112;-78
2022/01/05 02:05:04;;;;;;;;;;;;;;;3.55;89.60;98881.15;1625484;85;21160;-78
2022/01/05 02:07:30;;;;;;;1999.90;999.90;;;;;;;3.51;89.58;98885.89;1630497;86;20214;-77
2022/01/05 02:09:56;;;;;;;1999.90;999.90;;;;;;;3.47;89.55;98898.73;1639764;86;21032;-78
2022/01/05 02:12:26;;;;;;;1999.90;999.90;;;;;;;3.42;89.53;98899.23;1609311;86;21137;-78
2022/01/05 02:14:50;;;;;;;1999.90;999.90;;;;;;;3.35;89.50;98908.70;1610306;87;21626;-77
2022/01/05 02:17:20;;;;;;;1999.90;999.90;;;;;;;3.29;89.45;98907.52;1631408;86;21881;-77
2022/01/05 02:19:46;;;;;;;1999.90;999.90;;;;;;;3.24;89.49;98902.47;1636885;87;21410;-77
2022/01/05 02:22:11;;;;;;;;;;;;;;;3.21;89.51;98897.41;1623492;87;20965;-77
2022/01/05 02:24:37;;;;;;;1999.90;999.90;;;;;;;3.20;89.55;98891.88;1620170;87;20797;-77
2022/01/05 02:27:04;;;;;;;1999.90;999.90;;;;;;;3.17;89.54;98888.09;1638350;86;21022;-78
2022/01/05 02:29:30;;;;;;;1999.90;999.90;;;;;;;3.14;89.56;98887.29;1605936;88;20962;-78
2022/01/05 02:32:00;;;;;;;6.10;5.80;;;;;;;3.12;89.60;98890.33;1617343;86;21618;-78
2022/01/05 02:34:24;;;;;;;11.25;10.75;;;;;;;3.11;89.61;98882.25;1603471;87;21394;-78
2022/01/05 02:36:50;;;;;;;12.47;11.90;;;;;;;3.08;89.57;98887.41;1621901;88;21599;-78
2022/01/05 02:39:16;;;;;;;13.93;13.33;;;;;;;3.05;89.59;98890.84;1661297;84;20872;-78
2022/01/05 02:41:42;;;;;;;15.90;15.20;;;;;;;3.04;89.70;98878.94;1661180;84;21554;-78
2022/01/05 02:44:08;;;;;;;15.50;14.90;;;;;;;3.06;89.75;98881.47;1661189;84;21458;-78
2022/01/05 02:46:34;;;;;;;32.20;30.17;;;;;;;3.10;89.83;98886.95;1660129;84;20887;-77
2022/01/05 02:49:03;;;;;;;21.07;20.08;;;;;;;3.13;89.86;98895.38;1661508;84;20926;-77
2022/01/05 02:51:29;;;;;;;15.20;14.60;;;;;;;3.18;89.90;98894.05;1621471;87;21484;-78
2022/01/05 02:53:55;;;;;;;1999.90;999.90;;;;;;;3.22;89.94;98887.59;1658091;84;21493;-77
2022/01/05 02:56:21;;;;;;;1999.90;999.90;;;;;;;3.27;89.91;98881.14;1653576;84;20903;-77
2022/01/05 02:58:47;;;;;;;1999.90;999.90;;;;;;;3.30;89.87;98879.83;1661351;84;22127;-77
2022/01/05 03:01:14;;;;;;;1999.90;999.90;;;;;;;3.33;89.88;98878.50;1658712;84;21039;-77
2022/01/05 03:03:40;;;;;;;1999.90;999.90;;;;;;;3.36;89.91;98884.84;1641259;84;21502;-77
2022/01/05 03:06:06;;;;;;;1999.90;999.90;;;;;;;3.40;89.91;98886.92;1639582;84;21548;-77
2022/01/05 03:08:33;;;;;;;21.57;20.65;;;;;;;3.43;89.90;98885.60;1647061;84;20962;-77
2022/01/05 03:10:59;;;;;;;30.40;29.00;;;;;;;3.46;89.91;98881.29;1661463;84;21530;-77
2022/01/05 03:13:25;;;;;;;1999.90;999.90;;;;;;;3.48;89.84;98887.66;1642361;86;26378;-77
2022/01/05 03:15:53;;;;;;;1999.90;999.90;;;;;;;3.51;89.84;98890.16;1652136;84;20970;-77
2022/01/05 03:18:19;;;;;;;1999.90;999.90;;;;;;;3.52;89.81;98889.30;1649679;84;21494;-77
2022/01/05 03:20:48;;;;;;;1999.90;999.90;;;;;;;3.54;89.82;98893.95;1661061;84;21470;-77
2022/01/05 03:23:15;;;;;;;1999.90;999.90;;;;;;;3.55;89.80;98889.25;1661273;84;21380;-77
2022/01/05 03:25:42;;;;;;;15.95;15.25;;;;;;;3.57;89.85;98894.75;1661958;84;20918;-77
2022/01/05 03:28:08;;;;;;;33.73;31.60;;;;;;;3.60;89.84;98901.52;1655934;84;21524;-77
2022/01/05 03:30:35;;;;;;;1999.90;999.90;;;;;;;3.61;89.84;98907.05;1640312;86;20870;-77
2022/01/05 03:35:31;;;;;;;1999.90;999.90;;;;;;;3.64;89.82;98896.74;1650307;86;21505;-77
2022/01/05 03:37:59;;;;;;;1999.90;999.90;;;;;;;3.65;89.83;98886.50;1621026;85;20932;-77
2022/01/05 03:40:26;;;;;;;1999.90;999.90;;;;;;;3.64;89.74;98881.41;1642367;86;21470;-77
2022/01/05 03:42:53;;;;;;;1999.90;999.90;;;;;;;3.61;89.71;98877.22;1637186;85;21512;-77
2022/01/05 03:45:19;;;;;;;12.98;12.18;;;;;;;3.61;89.75;98877.22;1636874;86;21413;-77
2022/01/05 03:47:45;;;;;;;11.78;11.22;;;;;;;3.60;89.74;98870.86;1637920;85;21469;-77
2022/01/05 03:50:12;;;;;;;1999.90;999.90;;;;;;;3.60;89.76;98868.30;1632324;85;21476;-77
2022/01/05 03:52:38;;;;;;;1999.90;999.90;;;;;;;3.57;89.72;98870.47;1643544;83;21417;-77
2022/01/05 03:55:06;;;;;;;1999.90;999.90;;;;;;;3.57;89.74;98873.03;1651369;86;21489;-77
2022/01/05 03:57:33;;;;;;;1999.90;999.90;;;;;;;3.55;89.71;98871.36;1643601;85;20945;-77
2022/01/05 03:59:59;;;;;;;1999.90;999.90;;;;;;;3.53;89.68;98871.82;1637079;86;21461;-77
2022/01/05 04:02:26;;;;;;;15.38;14.38;;;;;;;3.52;89.71;98871.41;1631524;87;20973;-77
2022/01/05 04:04:52;;;;;;;15.53;14.83;;;;;;;3.50;89.73;98870.59;1617041;87;21437;-77
2022/01/05 04:07:19;;;;;;;17.10;16.37;;;;;;;3.49;89.70;98874.01;1621735;87;20965;-77
2022/01/05 04:09:45;;;;;;;1999.90;999.90;;;;;;;3.47;89.68;98879.14;1616944;87;28594;-77
2022/01/05 04:12:12;;;;;;;1999.90;999.90;;;;;;;3.44;89.63;98874.08;1632297;86;21457;-77
2022/01/05 04:14:38;;;;;;;1999.90;999.90;;;;;;;3.42;89.62;98873.26;1620791;87;21444;-77
2022/01/05 04:17:05;;;;;;;1999.90;999.90;;;;;;;3.41;89.67;98860.51;1617169;87;21481;-77
2022/01/05 04:19:35;;;;;;;1999.90;999.90;;;;;;;3.40;89.70;98859.66;1622933;87;20917;-77
2022/01/05 04:22:02;;;;;;;1999.90;999.90;;;;;;;3.37;89.60;98871.64;1617026;87;21730;-77
2022/01/05 04:24:28;;;;;;;15.48;14.73;;;;;;;3.31;89.57;98884.91;1632399;87;28693;-77
2022/01/05 04:26:54;;;;;;;16.80;16.10;;;;;;;3.30;89.63;98897.70;1632522;85;20993;-77
2022/01/05 04:29:21;;;;;;;1999.90;999.90;;;;;;;3.29;89.62;98907.52;1609562;87;20993;-77
2022/01/05 04:31:47;;;;;;;1999.90;999.90;;;;;;;3.27;89.62;98904.98;1608222;87;20918;-77
2022/01/05 04:34:13;;;;;;;1999.90;999.90;;;;;;;3.22;89.54;98902.08;1608258;87;21493;-77
2022/01/05 04:36:40;;;;;;;1999.90;999.90;;;;;;;3.17;89.56;98891.08;1623331;87;20934;-77
2022/01/05 04:39:06;;;;;;;1999.90;999.90;;;;;;;3.15;89.56;98885.15;1611710;87;20934;-77
2022/01/05 04:41:32;;;;;;;20.02;19.10;;;;;;;3.11;89.57;98890.77;1594248;84;20962;-77
2022/01/05 04:43:58;;;;;;;1999.90;999.90;;;;;;;3.10;89.63;98888.23;1574971;91;20994;-77
2022/01/05 04:46:25;;;;;;;1999.90;999.90;;;;;;;3.10;89.66;98892.06;1574809;91;20974;-77
2022/01/05 04:48:51;;;;;;;1999.90;999.90;;;;;;;3.10;89.69;98897.17;1565329;91;20938;-77
2022/01/05 04:51:18;;;;;;;1999.90;999.90;;;;;;;3.09;89.72;98903.14;1570842;91;20933;-77
2022/01/05 04:53:44;;;;;;;1999.90;999.90;;;;;;;3.10;89.75;98898.44;1560447;91;20985;-77
2022/01/05 04:56:11;;;;;;;1999.90;999.90;;;;;;;3.11;89.76;98901.41;1571007;91;20966;-77
2022/01/05 04:58:37;;;;;;;1999.90;999.90;;;;;;;3.11;89.75;98908.64;1575024;91;20942;-77
2022/01/05 05:01:03;;;;;;;1999.90;999.90;;;;;;;3.12;89.70;98913.31;1572625;91;20962;-77
2022/01/05 05:03:30;;;;;;;1999.90;999.90;;;;;;;3.10;89.71;98908.22;1550858;91;21486;-77
2022/01/05 05:05:56;;;;;;;1999.90;999.90;;;;;;;3.12;89.75;98913.31;1554019;91;21118;-77
2022/01/05 05:08:22;;;;;;;1999.90;999.90;;;;;;;3.13;89.74;98911.98;1564108;89;20937;-77
2022/01/05 05:10:48;;;;;;;1505.05;754.80;;;;;;;3.13;89.74;98909.42;1554663;91;21013;-77
2022/01/05 05:13:14;;;;;;;1999.90;999.90;;;;;;;3.14;89.79;98902.18;1557918;91;20960;-77
2022/01/05 05:15:40;;;;;;;1999.90;999.90;;;;;;;3.17;89.83;98903.84;1550851;91;21623;-77
2022/01/05 05:18:07;;;;;;;1999.90;999.90;;;;;;;3.20;89.87;98898.27;1550357;91;20968;-77
2022/01/05 05:20:33;;;;;;;;;;;;;;;3.23;89.88;98905.89;1571662;91;20905;-77
2022/01/05 05:23:00;;;;;;;11.70;11.00;;;;;;;3.26;89.91;98896.91;1550623;91;20182;-77
2022/01/05 05:25:26;;;;;;;17.95;17.02;;;;;;;3.29;89.84;98907.52;1554275;91;21426;-77
2022/01/05 05:27:53;;;;;;;21.25;20.02;;;;;;;3.30;89.87;98907.48;1568195;90;20949;-77
2022/01/05 05:30:19;;;;;;;16.97;16.12;;;;;;;3.35;89.87;98911.26;1578161;90;20970;-77
2022/01/05 05:32:45;;;;;;;20.55;19.62;;;;;;;3.38;89.87;98909.94;1577616;90;20948;-78
2022/01/05 05:35:11;;;;;;;1999.90;999.90;;;;;;;3.41;89.86;98911.61;1557178;91;20956;-78
2022/01/05 05:37:37;;;;;;;1999.90;999.90;;;;;;;3.43;89.87;98911.15;1564850;90;20948;-78
2022/01/05 05:40:06;;;;;;;1999.90;999.90;;;;;;;3.46;89.88;98900.45;1581752;90;20977;-78
2022/01/05 05:42:32;;;;;;;20.43;19.42;;;;;;;3.49;89.87;98905.95;1567997;90;21687;-78
2022/01/05 05:44:58;;;;;;;15.85;15.08;;;;;;;3.51;89.83;98910.61;1557191;90;20977;-78
2022/01/05 05:47:24;;;;;;;1999.90;999.90;;;;;;;3.54;89.86;98913.12;1557293;90;20957;-78
2022/01/05 05:49:50;;;;;;;1999.90;999.90;;;;;;;3.56;89.84;98912.66;1569249;90;20974;-78
2022/01/05 05:52:16;;;;;;;1999.90;999.90;;;;;;;3.56;89.80;98907.11;1562424;90;20905;-78
2022/01/05 05:54:42;;;;;;;1999.90;999.90;;;;;;;3.57;89.81;98909.23;1557296;90;20973;-78
2022/01/05 05:57:09;;;;;;;1999.90;999.90;;;;;;;3.59;89.83;98908.34;1571649;90;20953;-78
2022/01/05 05:59:35;;;;;;;1999.90;999.90;;;;;;;3.61;89.82;98904.48;1561876;90;21020;-77
2022/01/05 06:02:01;;;;;;;24.70;23.18;;;;;;;3.61;89.80;98913.44;1550296;91;20938;-79
2022/01/05 06:04:27;;;;;;;24.05;22.05;;;;;;;3.62;89.81;98909.58;1565552;91;21002;-78
2022/01/05 06:06:53;;;;;;;21.07;20.17;;;;;;;3.62;89.79;98906.17;1574767;90;20906;-78
2022/01/05 06:09:19;;;;;;;1999.90;999.90;;;;;;;3.61;89.78;98918.55;1571703;89;20973;-78
2022/01/05 06:11:45;;;;;;;1999.90;999.90;;;;;;;3.61;89.78;98923.22;1553688;91;20966;-78
2022/01/05 06:14:11;;;;;;;1999.90;999.90;;;;;;;3.62;89.81;98918.52;1570110;89;20933;-78
2022/01/05 06:16:37;;;;;;;1999.90;999.90;;;;;;;3.62;89.80;98912.13;1555876;90;20985;-77
2022/01/05 06:19:03;;;;;;;1999.90;999.90;;;;;;;3.62;89.80;98907.02;1548742;91;21155;-77
2022/01/05 06:21:29;;;;;;;14.95;14.13;;;;;;;3.63;89.82;98907.43;1550944;89;21199;-73
2022/01/05 06:23:55;;;;;;;20.68;19.67;;;;;;;3.62;89.79;98903.19;1562259;89;21103;-74
2022/01/05 06:26:22;;;;;;;1999.90;999.90;;;;;;;3.64;89.82;98904.41;1573560;89;21077;-73
2022/01/05 06:28:48;;;;;;;1999.90;999.90;;;;;;;3.65;89.86;98915.89;1580186;89;21093;-71
2022/01/05 06:31:14;;;;;;;1999.90;999.90;;;;;;;3.68;89.84;98923.94;1549795;91;21091;-73
2022/01/05 06:33:40;;;;;;;1999.90;999.90;;;;;;;3.68;89.83;98930.33;1548884;91;21687;-72
2022/01/05 06:36:06;;;;;;;686.40;351.67;;;;;;;3.70;89.86;98940.53;1553422;91;20913;-73
2022/01/05 06:38:32;;;;;;;25.02;22.82;;;;;;;3.71;89.84;98944.78;1546242;91;20977;-73
2022/01/05 06:40:58;;;;;;;21.80;20.67;;;;;;;3.72;89.85;98951.58;1546345;91;20948;-74
2022/01/05 06:43:25;;;;;;;1999.90;999.90;;;;;;;3.62;89.82;98947.07;1557685;90;21817;-73
2022/01/05 06:45:51;;;;;;;1999.90;999.90;;;;;;;3.73;89.85;98968.61;1548358;90;21068;-72
2022/01/05 06:48:17;;;;;;;1999.90;999.90;;;;;;;3.75;89.94;98971.55;1543393;91;21115;-72
2022/01/05 06:50:43;;;;;;;1999.90;999.90;;;;;;;3.76;89.86;98973.23;1539346;91;21171;-72
2022/01/05 06:53:09;;;;;;;1999.90;999.90;;;;;;;3.78;89.82;98975.77;1557230;91;21104;-72
2022/01/05 06:55:36;;;;;;;1999.90;999.90;;;;;;;3.78;89.85;98976.62;1557054;91;21174;-72
2022/01/05 06:58:02;;;;;;;25.00;23.32;;;;;;;3.79;89.83;98981.30;1559588;90;21148;-72
2022/01/05 07:00:31;;;;;;;21.60;20.15;;;;;;;3.80;89.82;98985.11;1552641;91;21132;-73
2022/01/05 07:02:56;;;;;;;1505.23;754.92;;;;;;;3.80;89.80;98991.50;1601411;84;191691;-72
2022/01/05 07:05:23;;;;;;;21.23;19.95;;;;;;;3.78;89.68;98992.39;1640650;87;20914;-73
2022/01/05 07:07:49;;;;;;;22.42;21.12;;;;;;;3.70;89.51;98992.50;1637858;87;20940;-72
2022/01/05 07:10:17;;;;;;;1999.90;999.90;;;;;;;3.63;89.46;98996.04;1643624;87;20965;-73
2022/01/05 07:12:43;;;;;;;1999.90;999.90;;;;;;;3.58;89.45;98991.42;1642527;87;20921;-72
2022/01/05 07:15:11;;;;;;;1999.90;999.90;;;;;;;3.54;89.46;98991.90;1639224;87;20985;-72
2022/01/05 07:17:37;;;;;;;20.65;19.45;;;;;;;3.49;89.43;98987.72;1641387;87;20933;-73
2022/01/05 07:20:06;;;;;;;1999.90;999.90;;;;;;;3.46;89.48;98988.59;1642813;87;20901;-73
2022/01/05 07:22:32;;;;;;;1999.90;999.90;;;;;;;3.43;89.49;98993.75;1639648;87;20972;-73
2022/01/05 07:24:58;;;;;;;1999.90;999.90;;;;;;;3.41;89.48;98985.27;1643266;87;20979;-73
2022/01/05 07:27:24;;;;;;;1999.90;999.90;;;;;;;3.40;89.51;98990.39;1643755;85;20925;-72
2022/01/05 07:29:50;;;;;;;1999.90;999.90;;;;;;;3.39;89.58;98988.27;1638432;86;20928;-72
2022/01/05 07:32:16;;;;;;;1999.90;999.90;;;;;;;3.38;89.56;98994.24;1617316;87;21492;-72
2022/01/05 07:34:42;;;;;;;1999.90;999.90;;;;;;;3.36;89.53;98994.70;1644110;87;20984;-72
2022/01/05 07:37:09;;;;;;;1999.90;999.90;;;;;;;3.34;89.52;98987.48;1640300;87;21595;-73
2022/01/05 07:39:37;;;;;;;11.40;10.70;;;;;;;3.32;89.53;98986.66;1641476;87;20925;-73
2022/01/05 07:42:04;;;;;;;20.48;18.92;;;;;;;3.31;89.51;98986.25;1643606;87;21036;-73
2022/01/05 07:44:31;;;;;;;1999.90;999.90;;;;;;;3.28;89.47;98982.02;1641655;87;21067;-72
2022/01/05 07:46:57;;;;;;;1999.90;999.90;;;;;;;3.27;89.50;98979.05;1642100;87;21549;-72
2022/01/05 07:49:22;;;;;;;1999.90;999.90;;;;;;;3.28;89.56;98985.00;1641059;86;21073;-72
2022/01/05 07:51:48;;;;;;;1999.90;999.90;;;;;;;3.26;89.52;98982.91;1631372;87;21001;-72
2022/01/05 07:54:14;;;;;;;1999.90;999.90;;;;;;;3.23;89.52;98982.51;1617471;87;21071;-72
2022/01/05 07:56:40;;;;;;;1999.90;999.90;;;;;;;3.23;89.53;98995.28;1616308;87;21181;-72
2022/01/05 07:59:06;;;;;;;1999.90;999.90;;;;;;;3.21;89.48;98992.33;1642521;87;20963;-70
2022/01/05 08:01:32;;;;;;;15.45;14.55;;;;;;;3.19;89.51;99000.45;1642443;87;21072;-69
2022/01/05 08:03:58;;;;;;;1999.90;999.90;;;;;;;3.18;89.53;98995.77;1642784;87;21697;-75
2022/01/05 08:06:24;;;;;;;1999.90;999.90;;;;;;;3.17;89.49;98994.08;1618651;87;21087;-75
2022/01/05 08:08:51;;;;;;;1999.90;999.90;;;;;;;3.17;89.52;98980.46;1623804;87;21700;-69
2022/01/05 08:11:18;;;;;;;1999.90;999.90;;;;;;;3.16;89.50;98994.09;1629624;87;25077;-71
2022/01/05 08:13:44;;;;;;;1999.90;999.90;;;;;;;3.13;89.50;98987.75;1637552;87;20909;-72
2022/01/05 08:16:10;;;;;;;1999.90;999.90;;;;;;;3.14;89.54;98983.90;1641155;87;26420;-72
2022/01/05 08:18:37;;;;;;;1999.90;999.90;;;;;;;3.14;89.54;98989.01;1640742;87;21000;-72
2022/01/05 08:21:03;;;;;;;1999.90;999.90;;;;;;;3.13;89.52;98989.02;1642702;87;21022;-73
2022/01/05 08:23:30;;;;;;;1999.90;999.90;;;;;;;3.12;89.50;98984.81;1635033;87;21074;-72
2022/01/05 08:25:56;;;;;;;1999.90;999.90;;;;;;;3.12;89.51;98976.69;1643399;87;20964;-73
2022/01/05 08:28:22;;;;;;;1999.90;999.90;;;;;;;3.12;89.53;98973.32;1641733;87;20929;-73
2022/01/05 08:30:48;;;;;;;1999.90;999.90;;;;;;;3.13;89.54;98969.88;1642042;86;20948;-74
2022/01/05 08:33:16;;;;;;;1999.90;999.90;;;;;;;3.13;89.53;98977.10;1620877;87;20929;-73
2022/01/05 08:35:43;;;;;;;1999.90;999.90;;;;;;;3.09;89.46;98976.75;1640174;87;20957;-74
2022/01/05 08:38:11;;;;;;;1999.90;999.90;;;;;;;3.09;89.45;98981.02;1639459;87;20933;-74
2022/01/05 08:40:38;;;;;;;1999.90;999.90;;;;;;;3.08;89.49;98975.06;1641488;87;21000;-72
2022/01/05 08:43:06;;;;;;;;;;;;;;;3.08;89.47;98981.45;1642240;86;21579;-72
2022/01/05 08:45:32;;;;;;;1500.98;750.92;;;;;;;3.07;89.43;98976.36;1638574;87;77740;-73
2022/01/05 08:47:59;;;;;;;1999.90;999.90;;;;;;;3.06;89.44;98983.61;1641516;86;20960;-73
2022/01/05 08:50:28;;;;;;;;;;;;;;;3.07;89.49;98980.19;1636719;87;20990;-73
2022/01/05 08:52:56;;;;;;;1999.90;999.90;;;;;;;3.08;89.50;98989.55;1629339;87;20100;-73
2022/01/05 08:55:27;;;;;;;1999.90;999.90;;;;;;;3.10;89.50;98981.43;1637720;87;20938;-73
2022/01/05 08:57:54;;;;;;;1999.90;999.90;;;;;;;3.09;89.48;98981.86;1635649;87;20902;-73
2022/01/05 09:00:20;;;;;;;1999.90;999.90;;;;;;;3.11;89.52;98986.95;1638171;87;21462;-73
2022/01/05 09:02:46;;;;;;;1999.90;999.90;;;;;;;3.14;89.55;98991.56;1638252;87;20930;-73
2022/01/05 09:05:13;;;;;;;7.05;6.58;;;;;;;3.16;89.52;98999.20;1632124;87;21585;-73
2022/01/05 09:07:39;;;;;;;;;;;;;;;3.17;89.50;99004.29;1635018;87;20933;-73
2022/01/05 09:10:06;;;;;;;1999.90;999.90;;;;;;;3.18;89.45;99012.80;1610736;87;20155;-73
2022/01/05 09:12:33;;;;;;;1999.90;999.90;;;;;;;3.18;89.44;99022.58;1633075;87;20955;-72
2022/01/05 09:15:00;;;;;;;1999.90;999.90;;;;;;;3.19;89.48;99028.53;1620706;87;20925;-72
2022/01/05 09:17:27;;;;;;;1999.90;999.90;;;;;;;3.18;89.44;99031.52;1621626;87;21391;-73
2022/01/05 09:19:54;;;;;;;1999.90;999.90;;;;;;;3.18;89.42;99027.69;1631727;87;20918;-74
2022/01/05 09:22:21;;;;;;;1999.90;999.90;;;;;;;3.17;89.41;99017.49;1615362;87;20969;-74
2022/01/05 09:24:47;;;;;;;1999.90;999.90;;;;;;;3.18;89.41;99027.69;1631397;87;20978;-75
2022/01/05 09:27:13;;;;;;;1502.67;752.50;;;;;;;3.17;89.41;99028.55;1632214;87;20929;-74
2022/01/05 09:29:40;;;;;;;1999.90;999.90;;;;;;;3.18;89.40;99027.69;1507732;87;10000160;-74
2022/01/05 09:32:09;;;;;;;1999.90;999.90;;;;;;;3.17;89.41;99026.00;1585584;90;21677;-75
2022/01/05 09:34:38;;;;;;;1999.90;999.90;;;;;;;3.17;89.41;99023.45;1608568;89;21441;-75
2022/01/05 09:37:11;;;;;;;1999.90;999.90;;;;;;;3.19;89.46;99019.17;1593962;90;20987;-75
2022/01/05 09:42:17;;;;;;;1999.90;999.90;;;;;;;3.26;89.54;99032.28;1588941;90;21029;-74
2022/01/05 09:44:47;;;;;;;1999.90;999.90;;;;;;;3.29;89.50;99024.58;1609371;89;20925;-74
2022/01/05 09:47:40;;;;;;;1999.90;999.90;;;;;;;3.32;89.52;99027.53;1592232;88;125418;-74
2022/01/05 09:50:11;;;;;;;1999.90;999.90;;;;;;;3.35;89.50;99026.64;1619077;88;20977;-74
2022/01/05 09:52:41;;;;;;;1999.90;999.90;;;;;;;3.39;89.47;99031.70;1617414;88;20923;-74
2022/01/05 09:55:11;;;;;;;1999.90;999.90;;;;;;;3.42;89.50;99033.37;1616021;87;20953;-75
2022/01/05 09:57:43;;;;;;;1999.90;999.90;;;;;;;3.45;89.45;99025.67;1620126;88;20961;-75
2022/01/05 10:00:13;;;;;;;1999.90;999.90;;;;;;;3.45;89.45;99018.84;1609579;88;20962;-74
2022/01/05 10:02:41;;;;;;;1999.90;999.90;;;;;;;3.48;89.45;99020.52;1634730;87;20949;-75
2022/01/05 10:05:11;;;;;;;1999.90;999.90;;;;;;;3.48;89.44;99018.81;1619687;88;20965;-75
2022/01/05 10:07:38;;;;;;;6.67;6.28;;;;;;;3.53;89.45;99020.03;1620210;88;20988;-76
2022/01/05 10:10:05;;;;;;;1999.90;999.90;;;;;;;3.55;89.43;99021.70;1617857;88;20939;-76
2022/01/05 10:12:32;;;;;;;1999.90;999.90;;;;;;;3.57;89.45;99008.90;1638305;87;20894;-76
2022/01/05 10:14:58;;;;;;;1999.90;999.90;;;;;;;3.60;89.48;99009.70;1613033;88;20954;-75
2022/01/05 10:17:30;;;;;;;1999.90;999.90;;;;;;;3.63;89.51;99010.94;1590828;89;21069;-75
2022/01/05 10:20:06;;;;;;;1999.90;999.90;;;;;;;3.68;89.52;99013.41;1613223;88;20961;-75
2022/01/05 10:22:37;;;;;;;1999.90;999.90;;;;;;;3.72;89.49;99017.61;1620934;88;20987;-74
2022/01/05 10:25:24;;;;;;;1999.90;999.90;;;;;;;3.76;89.48;99016.70;1620896;87;20942;-75
2022/01/05 10:28:01;;;;;;;1999.90;999.90;;;;;;;3.78;89.41;99015.40;1636225;86;20931;-75
2022/01/05 10:30:43;;;;;;;1999.90;999.90;;;;;;;3.84;89.49;99015.31;1637186;85;20904;-75
2022/01/05 10:33:09;;;;;;;1999.90;999.90;;;;;;;3.88;89.48;99013.13;1676096;85;21059;-75
2022/01/05 10:35:37;;;;;;;1999.90;999.90;;;;;;;3.87;89.36;99018.67;1658572;85;21570;-76
2022/01/05 10:38:13;;;;;;;1999.90;999.90;;;;;;;3.90;89.42;99021.18;1681892;85;21147;-75
2022/01/05 10:40:39;;;;;;;1999.90;999.90;;;;;;;3.90;89.34;99024.17;1659225;85;21063;-75
2022/01/05 10:43:12;;;;;;;1999.90;999.90;;;;;;;3.90;89.33;99023.73;1681420;85;21091;-74
2022/01/05 10:45:45;;;;;;;1999.90;999.90;;;;;;;3.90;89.30;99028.85;1682774;85;20967;-74
2022/01/05 10:48:16;;;;;;;27.67;26.05;;;;;;;3.89;89.27;99025.03;1678816;85;20940;-75
2022/01/05 10:50:45;;;;;;;1999.90;999.90;;;;;;;3.89;89.33;99024.61;1680718;85;21366;-75
2022/01/05 10:53:18;;;;;;;1999.90;999.90;;;;;;;3.89;89.32;99018.21;1682719;85;20964;-75
2022/01/05 10:55:47;;;;;;;1999.90;999.90;;;;;;;3.90;89.34;99018.63;1659330;85;20948;-76
2022/01/05 10:58:16;;;;;;;1999.90;999.90;;;;;;;3.89;89.29;99019.48;1682673;85;21525;-74
2022/01/05 11:00:53;;;;;;;1999.90;999.90;;;;;;;3.90;89.32;99013.52;1681354;84;21083;-75
2022/01/05 11:03:39;;;;;;;1999.90;999.90;;;;;;;3.91;89.27;99019.47;1683599;85;20924;-73
2022/01/05 11:06:16;;;;;;;1999.90;999.90;;;;;;;3.93;89.27;99017.73;1662192;85;20928;-77
2022/01/05 11:09:00;;;;;;;1999.90;999.90;;;;;;;3.93;89.30;99021.13;1680155;85;20886;-77
2022/01/05 11:11:43;;;;;;;1999.90;999.90;;;;;;;3.97;89.36;99018.09;1653886;85;21541;-77